sensor_id;sensor_type;location;lat;lon;timestamp;pressure;altitude;pressure_sealevel;temperature;humidity
61963;BME280;47927;42.646;23.096;2023-03-04T00:01:08;92108.72;;;8.80;59.23
61963;BME280;47927;42.646;23.096;2023-03-04T00:03:34;92100.88;;;8.76;58.97
61963;BME280;47927;42.646;23.096;2023-03-04T00:06:01;92106.06;;;8.76;59.11
61963;BME280;47927;42.646;23.096;2023-03-04T00:08:27;92097.16;;;8.77;59.46
61963;BME280;47927;42.646;23.096;2023-03-04T00:10:52;92096.47;;;8.80;59.77
61963;BME280;47927;42.646;23.096;2023-03-04T00:13:18;92097.13;;;8.74;59.05
61963;BME280;47927;42.646;23.096;2023-03-04T00:15:46;92094.44;;;8.66;59.09
61963;BME280;47927;42.646;23.096;2023-03-04T00:18:12;92100.84;;;8.73;59.09
61963;BME280;47927;42.646;23.096;2023-03-04T00:20:38;92089.69;;;8.72;59.11
61963;BME280;47927;42.646;23.096;2023-03-04T00:23:04;92087.16;;;8.76;59.18
61963;BME280;47927;42.646;23.096;2023-03-04T00:25:29;92091.72;;;8.59;59.52
61963;BME280;47927;42.646;23.096;2023-03-04T00:27:55;92089.06;;;8.56;59.28
61963;BME280;47927;42.646;23.096;2023-03-04T00:30:22;92091.63;;;8.52;58.95
61963;BME280;47927;42.646;23.096;2023-03-04T00:32:48;92086.31;;;8.45;59.22
61963;BME280;47927;42.646;23.096;2023-03-04T00:35:14;92084.75;;;8.40;58.78
61963;BME280;47927;42.646;23.096;2023-03-04T00:37:40;92064.88;;;8.29;58.67
61963;BME280;47927;42.646;23.096;2023-03-04T00:40:06;92074.41;;;8.44;58.66
61963;BME280;47927;42.646;23.096;2023-03-04T00:42:32;92079.25;;;8.22;58.93
61963;BME280;47927;42.646;23.096;2023-03-04T00:44:57;92081.09;;;8.22;59.00
61963;BME280;47927;42.646;23.096;2023-03-04T00:47:42;92085.13;;;8.19;59.04
61963;BME280;47927;42.646;23.096;2023-03-04T00:50:08;92082.41;;;8.12;59.37
61963;BME280;47927;42.646;23.096;2023-03-04T00:52:33;92086.63;;;7.78;60.07
61963;BME280;47927;42.646;23.096;2023-03-04T00:54:59;92076.03;;;7.67;60.98
61963;BME280;47927;42.646;23.096;2023-03-04T00:57:24;92064.03;;;7.79;60.34
61963;BME280;47927;42.646;23.096;2023-03-04T00:59:50;92075.41;;;7.93;59.97
61963;BME280;47927;42.646;23.096;2023-03-04T01:02:16;92073.19;;;7.72;60.87
61963;BME280;47927;42.646;23.096;2023-03-04T01:04:41;92069.91;;;7.75;60.98
61963;BME280;47927;42.646;23.096;2023-03-04T01:07:07;92071.28;;;7.89;61.21
61963;BME280;47927;42.646;23.096;2023-03-04T01:09:33;92068.50;;;8.01;60.85
61963;BME280;47927;42.646;23.096;2023-03-04T01:11:58;92064.25;;;8.12;60.36
61963;BME280;47927;42.646;23.096;2023-03-04T01:14:24;92067.38;;;8.21;59.83
61963;BME280;47927;42.646;23.096;2023-03-04T01:16:49;92068.53;;;8.24;59.58
61963;BME280;47927;42.646;23.096;2023-03-04T01:19:15;92064.41;;;8.23;59.68
61963;BME280;47927;42.646;23.096;2023-03-04T01:21:41;92059.06;;;8.12;59.60
61963;BME280;47927;42.646;23.096;2023-03-04T01:24:07;92058.47;;;7.99;59.85
61963;BME280;47927;42.646;23.096;2023-03-04T01:26:33;92053.28;;;7.57;61.33
61963;BME280;47927;42.646;23.096;2023-03-04T01:28:58;92055.44;;;7.74;60.84
61963;BME280;47927;42.646;23.096;2023-03-04T01:31:24;92056.31;;;7.82;60.22
61963;BME280;47927;42.646;23.096;2023-03-04T01:33:50;92051.44;;;7.77;60.05
61963;BME280;47927;42.646;23.096;2023-03-04T01:36:16;92049.84;;;7.72;59.63
61963;BME280;47927;42.646;23.096;2023-03-04T01:38:42;92042.00;;;7.69;59.28
61963;BME280;47927;42.646;23.096;2023-03-04T01:41:08;92047.56;;;7.48;59.07
61963;BME280;47927;42.646;23.096;2023-03-04T01:43:35;92036.78;;;7.46;58.97
61963;BME280;47927;42.646;23.096;2023-03-04T01:46:01;92041.69;;;7.31;59.06
61963;BME280;47927;42.646;23.096;2023-03-04T01:48:33;92044.09;;;7.21;59.67
61963;BME280;47927;42.646;23.096;2023-03-04T01:51:20;92037.13;;;7.05;59.59
61963;BME280;47927;42.646;23.096;2023-03-04T01:53:48;92044.84;;;6.86;60.07
61963;BME280;47927;42.646;23.096;2023-03-04T01:56:22;92044.91;;;6.90;60.45
61963;BME280;47927;42.646;23.096;2023-03-04T02:01:33;92040.03;;;7.04;59.85
61963;BME280;47927;42.646;23.096;2023-03-04T02:03:58;92010.94;;;6.91;59.79
61963;BME280;47927;42.646;23.096;2023-03-04T02:06:24;92038.06;;;7.17;59.76
61963;BME280;47927;42.646;23.096;2023-03-04T02:08:50;92031.13;;;7.21;59.25
61963;BME280;47927;42.646;23.096;2023-03-04T02:11:15;92026.44;;;7.26;58.92
61963;BME280;47927;42.646;23.096;2023-03-04T02:13:41;92025.75;;;7.29;58.76
61963;BME280;47927;42.646;23.096;2023-03-04T02:16:06;92026.81;;;7.28;58.57
61963;BME280;47927;42.646;23.096;2023-03-04T02:18:32;92025.00;;;7.29;58.38
61963;BME280;47927;42.646;23.096;2023-03-04T02:21:24;92025.69;;;7.26;58.64
61963;BME280;47927;42.646;23.096;2023-03-04T02:26:48;92026.03;;;6.70;59.65
61963;BME280;47927;42.646;23.096;2023-03-04T02:29:15;92025.56;;;6.83;59.61
61963;BME280;47927;42.646;23.096;2023-03-04T02:31:51;92020.34;;;6.99;59.02
61963;BME280;47927;42.646;23.096;2023-03-04T02:34:21;92027.56;;;7.10;58.64
61963;BME280;47927;42.646;23.096;2023-03-04T02:36:51;92016.97;;;6.99;58.80
61963;BME280;47927;42.646;23.096;2023-03-04T02:41:51;92021.22;;;6.88;58.97
61963;BME280;47927;42.646;23.096;2023-03-04T02:44:27;92015.44;;;6.59;59.44
61963;BME280;47927;42.646;23.096;2023-03-04T02:46:54;92013.09;;;6.54;59.66
61963;BME280;47927;42.646;23.096;2023-03-04T02:49:21;92008.59;;;6.51;60.19
61963;BME280;47927;42.646;23.096;2023-03-04T02:51:52;91994.38;;;6.25;60.44
61963;BME280;47927;42.646;23.096;2023-03-04T02:54:23;92015.16;;;6.29;60.84
61963;BME280;47927;42.646;23.096;2023-03-04T02:56:51;92016.56;;;6.26;61.07
61963;BME280;47927;42.646;23.096;2023-03-04T02:59:19;92017.38;;;6.30;60.96
61963;BME280;47927;42.646;23.096;2023-03-04T03:01:45;91997.69;;;6.42;60.45
61963;BME280;47927;42.646;23.096;2023-03-04T03:04:11;92018.94;;;6.67;60.01
61963;BME280;47927;42.646;23.096;2023-03-04T03:06:38;92013.09;;;6.70;59.90
61963;BME280;47927;42.646;23.096;2023-03-04T03:09:04;92007.13;;;6.69;59.95
61963;BME280;47927;42.646;23.096;2023-03-04T03:11:30;91996.38;;;6.67;59.58
61963;BME280;47927;42.646;23.096;2023-03-04T03:13:56;92004.44;;;6.81;59.53
61963;BME280;47927;42.646;23.096;2023-03-04T03:16:23;92003.34;;;6.82;59.61
61963;BME280;47927;42.646;23.096;2023-03-04T03:18:49;92002.34;;;6.87;59.57
61963;BME280;47927;42.646;23.096;2023-03-04T03:21:14;92004.66;;;6.92;59.34
61963;BME280;47927;42.646;23.096;2023-03-04T03:23:40;92000.03;;;7.01;59.19
61963;BME280;47927;42.646;23.096;2023-03-04T03:26:06;92001.34;;;7.11;58.93
61963;BME280;47927;42.646;23.096;2023-03-04T03:28:31;92003.25;;;7.14;58.69
61963;BME280;47927;42.646;23.096;2023-03-04T03:30:58;91996.28;;;7.18;58.64
61963;BME280;47927;42.646;23.096;2023-03-04T03:33:24;91997.59;;;7.08;58.48
61963;BME280;47927;42.646;23.096;2023-03-04T03:35:50;91994.22;;;6.89;59.06
61963;BME280;47927;42.646;23.096;2023-03-04T03:38:15;91997.09;;;7.03;59.16
61963;BME280;47927;42.646;23.096;2023-03-04T03:40:41;91988.44;;;6.95;58.73
61963;BME280;47927;42.646;23.096;2023-03-04T03:43:07;91986.72;;;6.64;58.90
61963;BME280;47927;42.646;23.096;2023-03-04T03:45:32;91991.56;;;6.50;59.28
61963;BME280;47927;42.646;23.096;2023-03-04T03:47:58;91969.69;;;6.28;59.27
61963;BME280;47927;42.646;23.096;2023-03-04T03:50:23;91989.88;;;6.22;59.35
61963;BME280;47927;42.646;23.096;2023-03-04T03:52:49;91983.59;;;5.60;61.02
61963;BME280;47927;42.646;23.096;2023-03-04T03:55:14;91986.25;;;5.63;61.32
61963;BME280;47927;42.646;23.096;2023-03-04T03:57:40;91984.81;;;5.50;61.54
61963;BME280;47927;42.646;23.096;2023-03-04T04:00:07;91976.66;;;5.64;60.86
61963;BME280;47927;42.646;23.096;2023-03-04T04:02:37;91972.41;;;5.56;61.15
61963;BME280;47927;42.646;23.096;2023-03-04T04:05:03;91973.41;;;5.51;61.04
61963;BME280;47927;42.646;23.096;2023-03-04T04:07:29;91968.25;;;5.67;60.57
61963;BME280;47927;42.646;23.096;2023-03-04T04:09:54;91978.50;;;5.63;60.74
61963;BME280;47927;42.646;23.096;2023-03-04T04:12:20;91974.84;;;5.80;60.07
61963;BME280;47927;42.646;23.096;2023-03-04T04:14:45;91977.91;;;5.70;60.09
61963;BME280;47927;42.646;23.096;2023-03-04T04:17:13;91972.59;;;5.63;59.99
61963;BME280;47927;42.646;23.096;2023-03-04T04:19:39;91978.19;;;5.21;60.92
61963;BME280;47927;42.646;23.096;2023-03-04T04:22:06;91979.06;;;5.13;61.20
61963;BME280;47927;42.646;23.096;2023-03-04T04:24:33;91986.16;;;5.16;61.03
61963;BME280;47927;42.646;23.096;2023-03-04T04:26:59;91976.88;;;5.27;60.25
61963;BME280;47927;42.646;23.096;2023-03-04T04:29:24;91983.53;;;5.28;59.89
61963;BME280;47927;42.646;23.096;2023-03-04T04:31:50;91975.13;;;5.31;59.51
61963;BME280;47927;42.646;23.096;2023-03-04T04:34:15;91981.09;;;5.19;59.59
61963;BME280;47927;42.646;23.096;2023-03-04T04:36:41;91978.56;;;5.07;59.87
61963;BME280;47927;42.646;23.096;2023-03-04T04:39:06;91973.13;;;4.84;60.41
61963;BME280;47927;42.646;23.096;2023-03-04T04:41:37;91968.97;;;4.79;60.73
61963;BME280;47927;42.646;23.096;2023-03-04T04:44:03;91970.81;;;4.79;60.76
61963;BME280;47927;42.646;23.096;2023-03-04T04:46:28;91977.00;;;4.50;61.36
61963;BME280;47927;42.646;23.096;2023-03-04T04:48:54;91969.25;;;4.50;61.25
61963;BME280;47927;42.646;23.096;2023-03-04T04:51:20;91985.16;;;4.40;61.66
61963;BME280;47927;42.646;23.096;2023-03-04T04:53:46;91986.38;;;4.30;62.21
61963;BME280;47927;42.646;23.096;2023-03-04T04:56:18;91977.22;;;4.32;62.13
61963;BME280;47927;42.646;23.096;2023-03-04T04:58:44;91989.78;;;4.59;61.46
61963;BME280;47927;42.646;23.096;2023-03-04T05:01:10;91991.25;;;4.72;60.67
61963;BME280;47927;42.646;23.096;2023-03-04T05:03:36;91992.28;;;4.83;60.23
61963;BME280;47927;42.646;23.096;2023-03-04T05:06:04;91991.78;;;4.77;60.30
61963;BME280;47927;42.646;23.096;2023-03-04T05:08:31;91997.72;;;4.66;60.69
61963;BME280;47927;42.646;23.096;2023-03-04T05:10:56;92002.97;;;4.69;60.95
61963;BME280;47927;42.646;23.096;2023-03-04T05:13:22;91990.63;;;4.63;61.29
61963;BME280;47927;42.646;23.096;2023-03-04T05:15:51;92001.78;;;4.79;61.33
61963;BME280;47927;42.646;23.096;2023-03-04T05:18:18;91984.63;;;4.59;61.77
61963;BME280;47927;42.646;23.096;2023-03-04T05:20:44;92002.22;;;5.09;61.27
61963;BME280;47927;42.646;23.096;2023-03-04T05:23:10;91998.84;;;5.21;61.20
61963;BME280;47927;42.646;23.096;2023-03-04T05:25:35;92004.31;;;5.47;60.93
61963;BME280;47927;42.646;23.096;2023-03-04T05:28:01;92004.19;;;5.72;60.30
61963;BME280;47927;42.646;23.096;2023-03-04T05:30:29;92006.84;;;5.76;60.00
61963;BME280;47927;42.646;23.096;2023-03-04T05:32:54;92011.81;;;5.97;59.56
61963;BME280;47927;42.646;23.096;2023-03-04T05:35:20;92008.81;;;6.26;59.15
61963;BME280;47927;42.646;23.096;2023-03-04T05:37:45;92018.28;;;6.54;58.47
61963;BME280;47927;42.646;23.096;2023-03-04T05:40:11;92016.47;;;6.74;57.96
61963;BME280;47927;42.646;23.096;2023-03-04T05:42:37;92020.53;;;6.91;57.60
61963;BME280;47927;42.646;23.096;2023-03-04T05:45:02;92013.44;;;7.07;56.84
61963;BME280;47927;42.646;23.096;2023-03-04T05:47:28;92014.97;;;7.08;56.90
61963;BME280;47927;42.646;23.096;2023-03-04T05:49:53;92012.97;;;7.01;57.05
61963;BME280;47927;42.646;23.096;2023-03-04T05:52:19;92018.50;;;7.19;57.31
61963;BME280;47927;42.646;23.096;2023-03-04T05:54:45;92020.00;;;7.59;56.43
61963;BME280;47927;42.646;23.096;2023-03-04T05:57:10;92022.66;;;8.09;55.81
61963;BME280;47927;42.646;23.096;2023-03-04T05:59:35;92018.00;;;8.18;55.94
61963;BME280;47927;42.646;23.096;2023-03-04T06:02:01;92022.25;;;8.30;55.70
61963;BME280;47927;42.646;23.096;2023-03-04T06:04:26;92028.50;;;8.48;55.74
61963;BME280;47927;42.646;23.096;2023-03-04T06:06:52;92005.19;;;8.78;55.76
61963;BME280;47927;42.646;23.096;2023-03-04T06:09:18;92024.75;;;9.29;54.75
61963;BME280;47927;42.646;23.096;2023-03-04T06:11:45;92022.38;;;9.50;53.80
61963;BME280;47927;42.646;23.096;2023-03-04T06:14:11;92028.00;;;9.93;53.60
61963;BME280;47927;42.646;23.096;2023-03-04T06:16:37;92028.09;;;12.09;50.11
61963;BME280;47927;42.646;23.096;2023-03-04T06:19:02;92022.06;;;14.59;45.40
61963;BME280;47927;42.646;23.096;2023-03-04T06:21:28;92031.66;;;17.55;40.08
61963;BME280;47927;42.646;23.096;2023-03-04T06:23:54;92037.78;;;17.68;37.92
61963;BME280;47927;42.646;23.096;2023-03-04T06:26:19;92032.47;;;18.44;37.61
61963;BME280;47927;42.646;23.096;2023-03-04T06:28:45;92028.72;;;18.09;37.83
61963;BME280;47927;42.646;23.096;2023-03-04T06:31:10;92020.25;;;17.42;38.26
61963;BME280;47927;42.646;23.096;2023-03-04T06:33:36;92028.72;;;17.09;36.46
61963;BME280;47927;42.646;23.096;2023-03-04T06:36:01;92042.25;;;16.37;36.50
61963;BME280;47927;42.646;23.096;2023-03-04T06:38:27;92045.47;;;16.72;37.71
61963;BME280;47927;42.646;23.096;2023-03-04T06:40:52;92045.66;;;18.44;35.10
61963;BME280;47927;42.646;23.096;2023-03-04T06:43:18;92040.00;;;18.26;33.27
61963;BME280;47927;42.646;23.096;2023-03-04T06:45:44;92051.31;;;17.70;33.45
61963;BME280;47927;42.646;23.096;2023-03-04T06:48:10;92049.47;;;17.04;34.26
61963;BME280;47927;42.646;23.096;2023-03-04T06:50:36;92035.00;;;16.18;35.79
61963;BME280;47927;42.646;23.096;2023-03-04T06:53:03;92050.72;;;15.22;38.74
61963;BME280;47927;42.646;23.096;2023-03-04T06:55:29;92040.88;;;13.84;41.18
61963;BME280;47927;42.646;23.096;2023-03-04T06:57:54;92049.06;;;14.56;42.21
61963;BME280;47927;42.646;23.096;2023-03-04T07:00:20;92043.31;;;15.14;41.80
61963;BME280;47927;42.646;23.096;2023-03-04T07:02:48;92054.91;;;14.78;41.99
61963;BME280;47927;42.646;23.096;2023-03-04T07:05:13;92034.19;;;13.76;43.80
61963;BME280;47927;42.646;23.096;2023-03-04T07:07:39;92050.00;;;13.44;45.56
61963;BME280;47927;42.646;23.096;2023-03-04T07:10:05;92053.94;;;13.95;45.09
61963;BME280;47927;42.646;23.096;2023-03-04T07:12:31;92053.94;;;15.41;42.48
61963;BME280;47927;42.646;23.096;2023-03-04T07:14:56;92056.75;;;14.78;41.72
61963;BME280;47927;42.646;23.096;2023-03-04T07:17:22;92055.09;;;13.87;42.46
61963;BME280;47927;42.646;23.096;2023-03-04T07:19:47;92060.19;;;12.85;45.09
61963;BME280;47927;42.646;23.096;2023-03-04T07:22:13;92059.47;;;12.81;45.83
61963;BME280;47927;42.646;23.096;2023-03-04T07:24:38;92056.84;;;12.52;45.95
61963;BME280;47927;42.646;23.096;2023-03-04T07:27:04;92063.22;;;12.76;45.14
61963;BME280;47927;42.646;23.096;2023-03-04T07:29:30;92060.22;;;12.63;45.89
61963;BME280;47927;42.646;23.096;2023-03-04T07:31:55;92059.44;;;13.09;44.23
61963;BME280;47927;42.646;23.096;2023-03-04T07:34:21;92056.84;;;12.23;47.13
61963;BME280;47927;42.646;23.096;2023-03-04T07:36:46;92055.63;;;10.98;51.07
61963;BME280;47927;42.646;23.096;2023-03-04T07:39:12;92056.78;;;10.52;52.07
61963;BME280;47927;42.646;23.096;2023-03-04T07:41:38;92054.38;;;10.77;51.96
61963;BME280;47927;42.646;23.096;2023-03-04T07:44:05;92052.53;;;10.78;51.61
61963;BME280;47927;42.646;23.096;2023-03-04T07:46:31;92057.84;;;10.95;50.79
61963;BME280;47927;42.646;23.096;2023-03-04T07:48:57;92049.41;;;10.58;50.94
61963;BME280;47927;42.646;23.096;2023-03-04T07:51:25;92038.16;;;10.06;52.49
61963;BME280;47927;42.646;23.096;2023-03-04T07:53:53;92053.25;;;9.89;53.45
61963;BME280;47927;42.646;23.096;2023-03-04T07:56:24;92046.28;;;10.00;53.10
61963;BME280;47927;42.646;23.096;2023-03-04T07:58:50;92047.63;;;9.87;53.34
61963;BME280;47927;42.646;23.096;2023-03-04T08:01:20;92047.16;;;9.74;53.62
61963;BME280;47927;42.646;23.096;2023-03-04T08:03:47;92042.50;;;9.57;54.55
61963;BME280;47927;42.646;23.096;2023-03-04T08:06:15;92044.53;;;10.12;53.38
61963;BME280;47927;42.646;23.096;2023-03-04T08:08:41;92044.81;;;9.99;53.21
61963;BME280;47927;42.646;23.096;2023-03-04T08:11:16;92044.28;;;10.24;52.50
61963;BME280;47927;42.646;23.096;2023-03-04T08:13:43;92045.66;;;10.59;51.14
61963;BME280;47927;42.646;23.096;2023-03-04T08:16:11;92045.22;;;11.05;51.19
61963;BME280;47927;42.646;23.096;2023-03-04T08:18:41;92041.66;;;11.31;50.57
61963;BME280;47927;42.646;23.096;2023-03-04T08:21:10;92046.56;;;11.50;49.98
61963;BME280;47927;42.646;23.096;2023-03-04T08:23:37;92039.56;;;11.72;49.45
61963;BME280;47927;42.646;23.096;2023-03-04T08:26:12;92046.38;;;12.09;48.47
61963;BME280;47927;42.646;23.096;2023-03-04T09:00:55;92023.28;;;14.44;39.34
61963;BME280;47927;42.646;23.096;2023-03-04T09:10:55;92018.56;;;14.77;38.37
61963;BME280;47927;42.646;23.096;2023-03-04T09:13:22;92026.59;;;15.00;38.65
61963;BME280;47927;42.646;23.096;2023-03-04T09:15:50;92018.25;;;15.09;38.34
61963;BME280;47927;42.646;23.096;2023-03-04T09:18:17;92021.94;;;14.77;38.90
61963;BME280;47927;42.646;23.096;2023-03-04T09:20:44;92017.28;;;14.92;38.69
61963;BME280;47927;42.646;23.096;2023-03-04T09:23:10;92020.13;;;14.71;38.66
61963;BME280;47927;42.646;23.096;2023-03-04T09:25:37;92017.53;;;14.11;38.87
61963;BME280;47927;42.646;23.096;2023-03-04T09:28:03;92017.06;;;14.24;39.50
61963;BME280;47927;42.646;23.096;2023-03-04T09:30:29;92014.50;;;14.17;40.18
61963;BME280;47927;42.646;23.096;2023-03-04T09:32:55;92012.25;;;14.15;40.21
61963;BME280;47927;42.646;23.096;2023-03-04T09:35:21;92013.31;;;13.62;40.41
61963;BME280;47927;42.646;23.096;2023-03-04T09:37:47;92013.50;;;12.97;41.27
61963;BME280;47927;42.646;23.096;2023-03-04T09:40:20;92013.16;;;12.88;41.08
61963;BME280;47927;42.646;23.096;2023-03-04T09:42:49;92019.13;;;12.06;43.23
61963;BME280;47927;42.646;23.096;2023-03-04T09:45:21;92014.28;;;12.55;42.54
61963;BME280;47927;42.646;23.096;2023-03-04T09:47:50;91992.56;;;13.05;42.35
61963;BME280;47927;42.646;23.096;2023-03-04T09:50:18;92008.88;;;13.52;41.80
61963;BME280;47927;42.646;23.096;2023-03-04T09:53:01;92006.00;;;14.02;40.19
61963;BME280;47927;42.646;23.096;2023-03-04T09:55:36;91999.97;;;13.20;40.22
61963;BME280;47927;42.646;23.096;2023-03-04T09:58:30;92005.94;;;13.39;39.54
61963;BME280;47927;42.646;23.096;2023-03-04T10:01:13;92000.56;;;13.67;38.78
61963;BME280;47927;42.646;23.096;2023-03-04T10:03:45;92001.19;;;12.91;39.80
61963;BME280;47927;42.646;23.096;2023-03-04T10:06:16;91992.66;;;12.62;40.95
61963;BME280;47927;42.646;23.096;2023-03-04T10:11:33;91994.34;;;13.40;39.25
61963;BME280;47927;42.646;23.096;2023-03-04T10:16:59;91986.16;;;13.31;39.89
61963;BME280;47927;42.646;23.096;2023-03-04T10:21:55;91979.13;;;13.06;42.20
61963;BME280;47927;42.646;23.096;2023-03-04T10:24:25;91976.59;;;13.73;40.81
61963;BME280;47927;42.646;23.096;2023-03-04T10:26:56;91972.28;;;14.07;39.18
61963;BME280;47927;42.646;23.096;2023-03-04T10:29:23;91976.88;;;14.41;39.55
61963;BME280;47927;42.646;23.096;2023-03-04T10:31:49;91973.38;;;14.13;37.69
61963;BME280;47927;42.646;23.096;2023-03-04T10:34:16;91971.19;;;14.05;39.25
61963;BME280;47927;42.646;23.096;2023-03-04T10:39:32;91958.50;;;13.96;39.82
61963;BME280;47927;42.646;23.096;2023-03-04T10:42:02;91961.28;;;14.27;38.76
61963;BME280;47927;42.646;23.096;2023-03-04T10:44:29;91950.91;;;14.12;39.57
61963;BME280;47927;42.646;23.096;2023-03-04T10:46:56;91961.34;;;14.20;39.33
61963;BME280;47927;42.646;23.096;2023-03-04T10:49:23;91929.59;;;13.55;39.94
61963;BME280;47927;42.646;23.096;2023-03-04T10:51:50;91944.53;;;13.58;42.18
61963;BME280;47927;42.646;23.096;2023-03-04T10:54:40;91934.41;;;14.16;40.55
61963;BME280;47927;42.646;23.096;2023-03-04T10:58:00;91936.31;;;14.60;38.67
61963;BME280;47927;42.646;23.096;2023-03-04T11:02:43;91925.69;;;13.81;40.16
61963;BME280;47927;42.646;23.096;2023-03-04T11:12:40;91911.31;;;14.03;39.59
61963;BME280;47927;42.646;23.096;2023-03-04T11:15:26;91909.44;;;14.52;39.17
61963;BME280;47927;42.646;23.096;2023-03-04T11:18:03;91902.72;;;14.44;38.65
61963;BME280;47927;42.646;23.096;2023-03-04T11:20:35;91877.50;;;14.20;39.79
61963;BME280;47927;42.646;23.096;2023-03-04T11:23:08;91902.81;;;14.37;39.67
61963;BME280;47927;42.646;23.096;2023-03-04T11:25:39;91883.56;;;14.09;39.90
61963;BME280;47927;42.646;23.096;2023-03-04T11:28:18;91889.22;;;14.08;40.43
61963;BME280;47927;42.646;23.096;2023-03-04T11:30:56;91892.59;;;13.53;41.25
61963;BME280;47927;42.646;23.096;2023-03-04T11:33:43;91892.75;;;13.28;41.45
61963;BME280;47927;42.646;23.096;2023-03-04T11:38:48;91875.34;;;13.59;41.19
61963;BME280;47927;42.646;23.096;2023-03-04T11:41:35;91876.84;;;14.08;39.56
61963;BME280;47927;42.646;23.096;2023-03-04T11:44:07;91875.38;;;14.04;39.78
61963;BME280;47927;42.646;23.096;2023-03-04T11:46:53;91873.22;;;13.95;40.38
61963;BME280;47927;42.646;23.096;2023-03-04T11:55:11;91869.50;;;13.89;39.32
61963;BME280;47927;42.646;23.096;2023-03-04T12:01:42;91858.41;;;13.11;42.43
61963;BME280;47927;42.646;23.096;2023-03-04T12:29:20;91857.97;;;12.21;44.30
61963;BME280;47927;42.646;23.096;2023-03-04T12:32:10;91844.47;;;12.51;43.40
61963;BME280;47927;42.646;23.096;2023-03-04T12:45:47;91840.78;;;12.31;44.42
61963;BME280;47927;42.646;23.096;2023-03-04T12:48:34;91839.59;;;12.57;43.63
61963;BME280;47927;42.646;23.096;2023-03-04T12:54:13;91832.97;;;12.24;44.33
61963;BME280;47927;42.646;23.096;2023-03-04T13:02:59;91816.53;;;13.18;42.69
61963;BME280;47927;42.646;23.096;2023-03-04T13:10:32;91813.94;;;13.11;42.96
61963;BME280;47927;42.646;23.096;2023-03-04T13:13:00;91783.69;;;13.10;42.31
61963;BME280;47927;42.646;23.096;2023-03-04T13:15:34;91799.00;;;13.15;42.71
61963;BME280;47927;42.646;23.096;2023-03-04T13:20:37;91794.53;;;12.24;44.27
61963;BME280;47927;42.646;23.096;2023-03-04T13:23:22;91806.19;;;11.70;45.89
61963;BME280;47927;42.646;23.096;2023-03-04T13:41:24;91798.72;;;11.32;47.04
61963;BME280;47927;42.646;23.096;2023-03-04T13:43:56;91801.34;;;11.50;46.32
61963;BME280;47927;42.646;23.096;2023-03-04T13:54:06;91780.47;;;11.57;45.99
61963;BME280;47927;42.646;23.096;2023-03-04T14:06:41;91780.81;;;11.74;46.59
61963;BME280;47927;42.646;23.096;2023-03-04T14:09:24;91780.47;;;11.50;46.70
61963;BME280;47927;42.646;23.096;2023-03-04T14:11:53;91773.41;;;11.54;46.50
61963;BME280;47927;42.646;23.096;2023-03-04T14:14:24;91776.72;;;11.73;46.82
61963;BME280;47927;42.646;23.096;2023-03-04T14:16:56;91770.03;;;11.75;46.73
61963;BME280;47927;42.646;23.096;2023-03-04T14:19:27;91775.59;;;11.02;48.59
61963;BME280;47927;42.646;23.096;2023-03-04T14:21:54;91763.63;;;10.65;49.72
61963;BME280;47927;42.646;23.096;2023-03-04T14:24:21;91773.75;;;11.03;49.15
61963;BME280;47927;42.646;23.096;2023-03-04T14:26:47;91766.88;;;10.30;50.77
61963;BME280;47927;42.646;23.096;2023-03-04T14:29:28;91766.84;;;9.61;53.00
61963;BME280;47927;42.646;23.096;2023-03-04T14:31:55;91762.53;;;9.79;53.20
61963;BME280;47927;42.646;23.096;2023-03-04T14:34:30;91767.00;;;9.86;52.73
61963;BME280;47927;42.646;23.096;2023-03-04T14:37:00;91764.25;;;10.26;51.86
61963;BME280;47927;42.646;23.096;2023-03-04T14:39:30;91754.31;;;10.54;50.81
61963;BME280;47927;42.646;23.096;2023-03-04T14:42:03;91749.09;;;10.61;50.34
61963;BME280;47927;42.646;23.096;2023-03-04T14:44:42;91762.75;;;10.29;51.07
61963;BME280;47927;42.646;23.096;2023-03-04T14:49:46;91750.88;;;10.32;51.31
61963;BME280;47927;42.646;23.096;2023-03-04T14:52:46;91753.13;;;10.33;51.45
61963;BME280;47927;42.646;23.096;2023-03-04T14:55:23;91745.72;;;10.39;51.14
61963;BME280;47927;42.646;23.096;2023-03-04T14:58:17;91750.22;;;10.67;50.54
61963;BME280;47927;42.646;23.096;2023-03-04T15:00:44;91748.56;;;10.23;51.34
61963;BME280;47927;42.646;23.096;2023-03-04T15:03:19;91746.13;;;10.59;50.88
61963;BME280;47927;42.646;23.096;2023-03-04T15:05:46;91740.91;;;10.52;50.46
61963;BME280;47927;42.646;23.096;2023-03-04T15:08:22;91736.81;;;10.58;50.96
61963;BME280;47927;42.646;23.096;2023-03-04T15:10:54;91726.03;;;10.63;50.49
61963;BME280;47927;42.646;23.096;2023-03-04T15:13:45;91743.19;;;10.78;50.11
61963;BME280;47927;42.646;23.096;2023-03-04T15:16:13;91735.25;;;10.32;51.16
61963;BME280;47927;42.646;23.096;2023-03-04T15:19:05;91714.50;;;10.60;50.91
61963;BME280;47927;42.646;23.096;2023-03-04T15:21:46;91725.66;;;10.61;50.29
61963;BME280;47927;42.646;23.096;2023-03-04T15:24:12;91726.47;;;10.83;49.92
61963;BME280;47927;42.646;23.096;2023-03-04T15:26:41;91733.50;;;10.79;49.46
61963;BME280;47927;42.646;23.096;2023-03-04T15:29:18;91719.34;;;10.65;49.80
61963;BME280;47927;42.646;23.096;2023-03-04T15:31:45;91723.47;;;10.81;49.84
61963;BME280;47927;42.646;23.096;2023-03-04T15:34:17;91720.84;;;10.77;49.61
61963;BME280;47927;42.646;23.096;2023-03-04T15:36:45;91724.22;;;10.95;49.50
61963;BME280;47927;42.646;23.096;2023-03-04T15:39:15;91703.38;;;10.99;49.19
61963;BME280;47927;42.646;23.096;2023-03-04T15:41:42;91714.53;;;10.92;49.26
61963;BME280;47927;42.646;23.096;2023-03-04T15:44:08;91711.19;;;10.99;48.96
61963;BME280;47927;42.646;23.096;2023-03-04T15:46:34;91707.09;;;10.94;49.02
61963;BME280;47927;42.646;23.096;2023-03-04T15:48:59;91705.97;;;10.81;49.44
61963;BME280;47927;42.646;23.096;2023-03-04T15:51:25;91703.00;;;10.86;49.03
61963;BME280;47927;42.646;23.096;2023-03-04T15:53:57;91710.06;;;10.82;49.29